sensor_id;sensor_type;location;lat;lon;timestamp;P1;durP1;ratioP1;P2;durP2;ratioP2
11921;SDS011;6021;51.182;3.160;2023-11-19T00:02:10;27.30;;;6.60;;
11921;SDS011;6021;51.182;3.160;2023-11-19T00:04:38;28.03;;;5.70;;
11921;SDS011;6021;51.182;3.160;2023-11-19T00:07:07;36.73;;;6.17;;
11921;SDS011;6021;51.182;3.160;2023-11-19T00:09:37;28.40;;;6.20;;
11921;SDS011;6021;51.182;3.160;2023-11-19T00:12:06;32.83;;;6.23;;
11921;SDS011;6021;51.182;3.160;2023-11-19T00:14:34;36.30;;;7.20;;
11921;SDS011;6021;51.182;3.160;2023-11-19T00:17:03;29.77;;;5.83;;
11921;SDS011;6021;51.182;3.160;2023-11-19T00:19:31;28.23;;;6.00;;
11921;SDS011;6021;51.182;3.160;2023-11-19T00:21:59;28.20;;;6.90;;
11921;SDS011;6021;51.182;3.160;2023-11-19T00:24:29;26.10;;;6.50;;
11921;SDS011;6021;51.182;3.160;2023-11-19T00:26:58;29.00;;;7.03;;
11921;SDS011;6021;51.182;3.160;2023-11-19T00:29:26;30.20;;;7.27;;
11921;SDS011;6021;51.182;3.160;2023-11-19T00:31:55;39.50;;;8.93;;
11921;SDS011;6021;51.182;3.160;2023-11-19T00:34:23;34.87;;;7.23;;
11921;SDS011;6021;51.182;3.160;2023-11-19T00:36:52;42.17;;;7.70;;
11921;SDS011;6021;51.182;3.160;2023-11-19T00:39:22;28.43;;;6.63;;
11921;SDS011;6021;51.182;3.160;2023-11-19T00:41:50;38.20;;;7.40;;
11921;SDS011;6021;51.182;3.160;2023-11-19T00:44:19;36.00;;;7.27;;
11921;SDS011;6021;51.182;3.160;2023-11-19T00:46:48;34.27;;;8.03;;
11921;SDS011;6021;51.182;3.160;2023-11-19T00:49:16;42.33;;;8.20;;
11921;SDS011;6021;51.182;3.160;2023-11-19T00:51:44;33.87;;;7.63;;
11921;SDS011;6021;51.182;3.160;2023-11-19T00:54:13;31.53;;;7.00;;
11921;SDS011;6021;51.182;3.160;2023-11-19T00:56:41;35.37;;;7.73;;
11921;SDS011;6021;51.182;3.160;2023-11-19T00:59:10;25.20;;;6.33;;
11921;SDS011;6021;51.182;3.160;2023-11-19T01:01:38;25.80;;;6.57;;
11921;SDS011;6021;51.182;3.160;2023-11-19T01:04:06;39.27;;;6.40;;
11921;SDS011;6021;51.182;3.160;2023-11-19T01:06:35;34.70;;;6.83;;
11921;SDS011;6021;51.182;3.160;2023-11-19T01:09:03;30.50;;;6.90;;
11921;SDS011;6021;51.182;3.160;2023-11-19T01:11:32;34.83;;;7.37;;
11921;SDS011;6021;51.182;3.160;2023-11-19T01:14:00;40.27;;;6.43;;
11921;SDS011;6021;51.182;3.160;2023-11-19T01:16:29;33.13;;;7.07;;
11921;SDS011;6021;51.182;3.160;2023-11-19T01:18:57;37.83;;;7.10;;
11921;SDS011;6021;51.182;3.160;2023-11-19T01:21:27;32.40;;;6.53;;
11921;SDS011;6021;51.182;3.160;2023-11-19T01:23:57;34.93;;;7.10;;
11921;SDS011;6021;51.182;3.160;2023-11-19T01:26:26;31.77;;;6.47;;
11921;SDS011;6021;51.182;3.160;2023-11-19T01:28:54;34.43;;;6.17;;
11921;SDS011;6021;51.182;3.160;2023-11-19T01:31:22;29.50;;;6.80;;
11921;SDS011;6021;51.182;3.160;2023-11-19T01:33:51;35.37;;;7.10;;
11921;SDS011;6021;51.182;3.160;2023-11-19T01:36:19;34.67;;;7.37;;
11921;SDS011;6021;51.182;3.160;2023-11-19T01:38:47;31.87;;;7.10;;
11921;SDS011;6021;51.182;3.160;2023-11-19T01:41:16;31.17;;;7.37;;
11921;SDS011;6021;51.182;3.160;2023-11-19T01:43:45;28.73;;;7.03;;
11921;SDS011;6021;51.182;3.160;2023-11-19T01:46:13;32.87;;;6.90;;
11921;SDS011;6021;51.182;3.160;2023-11-19T01:48:42;32.33;;;7.47;;
11921;SDS011;6021;51.182;3.160;2023-11-19T01:51:12;38.30;;;7.43;;
11921;SDS011;6021;51.182;3.160;2023-11-19T01:53:43;31.07;;;6.67;;
11921;SDS011;6021;51.182;3.160;2023-11-19T01:56:13;28.53;;;7.20;;
11921;SDS011;6021;51.182;3.160;2023-11-19T01:58:47;29.83;;;7.43;;
11921;SDS011;6021;51.182;3.160;2023-11-19T02:01:13;50.20;;;6.87;;
11921;SDS011;6021;51.182;3.160;2023-11-19T02:03:42;33.23;;;7.50;;
11921;SDS011;6021;51.182;3.160;2023-11-19T02:06:10;38.70;;;8.20;;
11921;SDS011;6021;51.182;3.160;2023-11-19T02:08:39;37.60;;;7.77;;
11921;SDS011;6021;51.182;3.160;2023-11-19T02:11:07;40.50;;;8.83;;
11921;SDS011;6021;51.182;3.160;2023-11-19T02:13:37;35.73;;;7.97;;
11921;SDS011;6021;51.182;3.160;2023-11-19T02:16:05;33.43;;;7.03;;
11921;SDS011;6021;51.182;3.160;2023-11-19T02:18:36;36.50;;;7.87;;
11921;SDS011;6021;51.182;3.160;2023-11-19T02:21:04;39.07;;;8.20;;
11921;SDS011;6021;51.182;3.160;2023-11-19T02:23:33;34.10;;;7.77;;
11921;SDS011;6021;51.182;3.160;2023-11-19T02:26:03;28.83;;;6.80;;
11921;SDS011;6021;51.182;3.160;2023-11-19T02:28:35;29.77;;;6.70;;
11921;SDS011;6021;51.182;3.160;2023-11-19T02:31:04;36.33;;;7.33;;
11921;SDS011;6021;51.182;3.160;2023-11-19T02:33:35;33.33;;;7.33;;
11921;SDS011;6021;51.182;3.160;2023-11-19T02:36:04;29.33;;;6.70;;
11921;SDS011;6021;51.182;3.160;2023-11-19T02:38:34;33.10;;;7.70;;
11921;SDS011;6021;51.182;3.160;2023-11-19T02:41:03;33.20;;;7.90;;
11921;SDS011;6021;51.182;3.160;2023-11-19T02:43:32;39.17;;;7.83;;
11921;SDS011;6021;51.182;3.160;2023-11-19T02:46:01;37.80;;;7.60;;
11921;SDS011;6021;51.182;3.160;2023-11-19T02:48:32;30.37;;;7.37;;
11921;SDS011;6021;51.182;3.160;2023-11-19T02:51:02;32.77;;;7.27;;
11921;SDS011;6021;51.182;3.160;2023-11-19T02:53:31;38.63;;;7.00;;
11921;SDS011;6021;51.182;3.160;2023-11-19T02:55:59;30.93;;;6.77;;
11921;SDS011;6021;51.182;3.160;2023-11-19T02:58:30;32.50;;;6.70;;
11921;SDS011;6021;51.182;3.160;2023-11-19T03:00:58;32.47;;;6.73;;
11921;SDS011;6021;51.182;3.160;2023-11-19T03:03:28;33.53;;;7.63;;
11921;SDS011;6021;51.182;3.160;2023-11-19T03:05:58;39.47;;;7.13;;
11921;SDS011;6021;51.182;3.160;2023-11-19T03:08:28;36.17;;;7.40;;
11921;SDS011;6021;51.182;3.160;2023-11-19T03:10:56;35.27;;;8.07;;
11921;SDS011;6021;51.182;3.160;2023-11-19T03:13:25;33.43;;;7.67;;
11921;SDS011;6021;51.182;3.160;2023-11-19T03:15:54;35.70;;;7.63;;
11921;SDS011;6021;51.182;3.160;2023-11-19T03:18:22;31.73;;;7.20;;
11921;SDS011;6021;51.182;3.160;2023-11-19T03:20:50;32.43;;;6.73;;
11921;SDS011;6021;51.182;3.160;2023-11-19T03:23:19;32.27;;;6.90;;
11921;SDS011;6021;51.182;3.160;2023-11-19T03:25:47;37.77;;;6.93;;
11921;SDS011;6021;51.182;3.160;2023-11-19T03:28:18;33.67;;;6.47;;
11921;SDS011;6021;51.182;3.160;2023-11-19T03:30:46;32.43;;;7.43;;
11921;SDS011;6021;51.182;3.160;2023-11-19T03:33:15;35.53;;;7.63;;
11921;SDS011;6021;51.182;3.160;2023-11-19T03:35:43;29.70;;;7.53;;
11921;SDS011;6021;51.182;3.160;2023-11-19T03:38:12;35.15;;;6.83;;
11921;SDS011;6021;51.182;3.160;2023-11-19T03:40:41;30.00;;;7.13;;
11921;SDS011;6021;51.182;3.160;2023-11-19T03:43:09;33.87;;;6.67;;
11921;SDS011;6021;51.182;3.160;2023-11-19T03:45:39;32.57;;;7.37;;
11921;SDS011;6021;51.182;3.160;2023-11-19T03:48:07;37.07;;;7.30;;
11921;SDS011;6021;51.182;3.160;2023-11-19T03:50:36;28.67;;;6.93;;
11921;SDS011;6021;51.182;3.160;2023-11-19T03:53:04;31.53;;;7.20;;
11921;SDS011;6021;51.182;3.160;2023-11-19T03:55:32;29.93;;;7.43;;
11921;SDS011;6021;51.182;3.160;2023-11-19T03:58:00;36.77;;;7.20;;
11921;SDS011;6021;51.182;3.160;2023-11-19T04:00:29;28.70;;;6.67;;
11921;SDS011;6021;51.182;3.160;2023-11-19T04:02:57;41.77;;;7.30;;
11921;SDS011;6021;51.182;3.160;2023-11-19T04:05:25;33.60;;;7.30;;
11921;SDS011;6021;51.182;3.160;2023-11-19T04:07:54;35.17;;;7.47;;
11921;SDS011;6021;51.182;3.160;2023-11-19T04:10:22;37.00;;;7.57;;
11921;SDS011;6021;51.182;3.160;2023-11-19T04:12:50;36.83;;;8.13;;
11921;SDS011;6021;51.182;3.160;2023-11-19T04:15:19;34.93;;;7.40;;
11921;SDS011;6021;51.182;3.160;2023-11-19T04:17:47;31.10;;;7.10;;
11921;SDS011;6021;51.182;3.160;2023-11-19T04:20:15;36.67;;;7.50;;
11921;SDS011;6021;51.182;3.160;2023-11-19T04:22:44;27.83;;;6.40;;
11921;SDS011;6021;51.182;3.160;2023-11-19T04:25:12;33.77;;;6.93;;
11921;SDS011;6021;51.182;3.160;2023-11-19T04:27:41;30.63;;;7.20;;
11921;SDS011;6021;51.182;3.160;2023-11-19T04:30:10;27.40;;;6.40;;
11921;SDS011;6021;51.182;3.160;2023-11-19T04:32:39;40.10;;;7.30;;
11921;SDS011;6021;51.182;3.160;2023-11-19T04:35:07;37.60;;;7.97;;
11921;SDS011;6021;51.182;3.160;2023-11-19T04:37:36;34.50;;;7.30;;
11921;SDS011;6021;51.182;3.160;2023-11-19T04:40:05;37.03;;;7.50;;
11921;SDS011;6021;51.182;3.160;2023-11-19T04:42:34;39.43;;;7.10;;
11921;SDS011;6021;51.182;3.160;2023-11-19T04:45:02;37.57;;;7.13;;
11921;SDS011;6021;51.182;3.160;2023-11-19T04:47:33;31.90;;;7.03;;
11921;SDS011;6021;51.182;3.160;2023-11-19T04:50:02;38.10;;;7.57;;
11921;SDS011;6021;51.182;3.160;2023-11-19T04:52:30;35.17;;;7.27;;
11921;SDS011;6021;51.182;3.160;2023-11-19T04:54:59;31.67;;;7.03;;
11921;SDS011;6021;51.182;3.160;2023-11-19T04:57:27;38.40;;;7.63;;
11921;SDS011;6021;51.182;3.160;2023-11-19T04:59:55;34.17;;;7.00;;
11921;SDS011;6021;51.182;3.160;2023-11-19T05:02:24;30.47;;;6.97;;
11921;SDS011;6021;51.182;3.160;2023-11-19T05:04:52;33.53;;;7.37;;
11921;SDS011;6021;51.182;3.160;2023-11-19T05:07:21;39.37;;;7.97;;
11921;SDS011;6021;51.182;3.160;2023-11-19T05:09:49;33.40;;;6.90;;
11921;SDS011;6021;51.182;3.160;2023-11-19T05:12:17;37.27;;;7.13;;
11921;SDS011;6021;51.182;3.160;2023-11-19T05:14:46;23.87;;;5.50;;
11921;SDS011;6021;51.182;3.160;2023-11-19T05:17:16;29.13;;;6.53;;
11921;SDS011;6021;51.182;3.160;2023-11-19T05:19:45;32.63;;;6.70;;
11921;SDS011;6021;51.182;3.160;2023-11-19T05:22:14;33.85;;;6.72;;
11921;SDS011;6021;51.182;3.160;2023-11-19T05:24:43;36.87;;;7.27;;
11921;SDS011;6021;51.182;3.160;2023-11-19T05:27:11;31.17;;;6.93;;
11921;SDS011;6021;51.182;3.160;2023-11-19T05:29:40;30.30;;;6.57;;
11921;SDS011;6021;51.182;3.160;2023-11-19T05:32:10;26.27;;;6.93;;
11921;SDS011;6021;51.182;3.160;2023-11-19T05:34:38;32.50;;;7.27;;
11921;SDS011;6021;51.182;3.160;2023-11-19T05:37:06;32.97;;;6.70;;
11921;SDS011;6021;51.182;3.160;2023-11-19T05:39:36;30.67;;;6.83;;
11921;SDS011;6021;51.182;3.160;2023-11-19T05:42:05;38.83;;;7.03;;
11921;SDS011;6021;51.182;3.160;2023-11-19T05:44:33;27.93;;;6.13;;
11921;SDS011;6021;51.182;3.160;2023-11-19T05:47:01;38.90;;;7.73;;
11921;SDS011;6021;51.182;3.160;2023-11-19T05:49:30;33.67;;;6.80;;
11921;SDS011;6021;51.182;3.160;2023-11-19T05:51:58;36.00;;;7.53;;
11921;SDS011;6021;51.182;3.160;2023-11-19T05:54:28;32.87;;;6.80;;
11921;SDS011;6021;51.182;3.160;2023-11-19T05:56:58;29.97;;;6.77;;
11921;SDS011;6021;51.182;3.160;2023-11-19T05:59:26;35.43;;;7.47;;
11921;SDS011;6021;51.182;3.160;2023-11-19T06:01:54;27.10;;;6.50;;
11921;SDS011;6021;51.182;3.160;2023-11-19T06:04:25;32.53;;;7.03;;
11921;SDS011;6021;51.182;3.160;2023-11-19T06:06:53;36.27;;;7.47;;
11921;SDS011;6021;51.182;3.160;2023-11-19T06:09:21;25.27;;;6.77;;
11921;SDS011;6021;51.182;3.160;2023-11-19T06:11:50;32.80;;;7.60;;
11921;SDS011;6021;51.182;3.160;2023-11-19T06:14:19;36.77;;;7.27;;
11921;SDS011;6021;51.182;3.160;2023-11-19T06:16:47;29.73;;;6.77;;
11921;SDS011;6021;51.182;3.160;2023-11-19T06:19:15;31.10;;;7.13;;
11921;SDS011;6021;51.182;3.160;2023-11-19T06:21:44;29.73;;;6.90;;
11921;SDS011;6021;51.182;3.160;2023-11-19T06:24:12;34.80;;;6.40;;
11921;SDS011;6021;51.182;3.160;2023-11-19T06:26:41;32.57;;;6.70;;
11921;SDS011;6021;51.182;3.160;2023-11-19T06:29:09;24.97;;;6.30;;
11921;SDS011;6021;51.182;3.160;2023-11-19T06:31:40;34.83;;;6.90;;
11921;SDS011;6021;51.182;3.160;2023-11-19T06:34:08;36.57;;;7.30;;
11921;SDS011;6021;51.182;3.160;2023-11-19T06:36:36;32.50;;;7.17;;
11921;SDS011;6021;51.182;3.160;2023-11-19T06:39:04;32.03;;;6.53;;
11921;SDS011;6021;51.182;3.160;2023-11-19T06:41:33;32.30;;;7.33;;
11921;SDS011;6021;51.182;3.160;2023-11-19T06:44:03;32.57;;;7.30;;
11921;SDS011;6021;51.182;3.160;2023-11-19T06:46:32;33.83;;;7.23;;
11921;SDS011;6021;51.182;3.160;2023-11-19T06:49:03;30.87;;;7.00;;
11921;SDS011;6021;51.182;3.160;2023-11-19T06:51:31;32.33;;;6.70;;
11921;SDS011;6021;51.182;3.160;2023-11-19T06:54:00;29.33;;;6.73;;
11921;SDS011;6021;51.182;3.160;2023-11-19T06:56:28;33.63;;;6.70;;
11921;SDS011;6021;51.182;3.160;2023-11-19T06:58:57;34.70;;;7.00;;
11921;SDS011;6021;51.182;3.160;2023-11-19T07:01:25;33.40;;;7.07;;
11921;SDS011;6021;51.182;3.160;2023-11-19T07:03:54;30.73;;;7.13;;
11921;SDS011;6021;51.182;3.160;2023-11-19T07:06:24;36.55;;;7.28;;
11921;SDS011;6021;51.182;3.160;2023-11-19T07:08:52;30.70;;;6.17;;
11921;SDS011;6021;51.182;3.160;2023-11-19T07:11:21;28.27;;;6.57;;
11921;SDS011;6021;51.182;3.160;2023-11-19T07:13:49;30.80;;;7.17;;
11921;SDS011;6021;51.182;3.160;2023-11-19T07:16:17;28.03;;;6.70;;
11921;SDS011;6021;51.182;3.160;2023-11-19T07:18:48;36.83;;;8.00;;
11921;SDS011;6021;51.182;3.160;2023-11-19T07:21:16;30.57;;;7.43;;
11921;SDS011;6021;51.182;3.160;2023-11-19T07:23:46;39.63;;;7.53;;
11921;SDS011;6021;51.182;3.160;2023-11-19T07:26:14;37.13;;;7.20;;
11921;SDS011;6021;51.182;3.160;2023-11-19T07:28:43;34.00;;;7.50;;
11921;SDS011;6021;51.182;3.160;2023-11-19T07:31:13;32.90;;;7.33;;
11921;SDS011;6021;51.182;3.160;2023-11-19T07:33:41;27.00;;;6.73;;
11921;SDS011;6021;51.182;3.160;2023-11-19T07:36:10;35.40;;;7.90;;
11921;SDS011;6021;51.182;3.160;2023-11-19T07:38:39;35.17;;;7.10;;
11921;SDS011;6021;51.182;3.160;2023-11-19T07:41:08;33.83;;;7.10;;
11921;SDS011;6021;51.182;3.160;2023-11-19T07:43:43;33.90;;;7.27;;
11921;SDS011;6021;51.182;3.160;2023-11-19T07:46:11;33.80;;;7.63;;
11921;SDS011;6021;51.182;3.160;2023-11-19T07:48:40;34.27;;;7.50;;
11921;SDS011;6021;51.182;3.160;2023-11-19T07:51:10;33.50;;;7.77;;
11921;SDS011;6021;51.182;3.160;2023-11-19T07:53:39;38.80;;;8.27;;
11921;SDS011;6021;51.182;3.160;2023-11-19T07:56:08;32.40;;;7.33;;
11921;SDS011;6021;51.182;3.160;2023-11-19T07:58:36;32.10;;;6.57;;
11921;SDS011;6021;51.182;3.160;2023-11-19T08:01:05;33.53;;;7.30;;
11921;SDS011;6021;51.182;3.160;2023-11-19T08:03:33;31.87;;;7.30;;
11921;SDS011;6021;51.182;3.160;2023-11-19T08:06:03;31.63;;;7.13;;
11921;SDS011;6021;51.182;3.160;2023-11-19T08:08:33;31.03;;;6.63;;
11921;SDS011;6021;51.182;3.160;2023-11-19T08:11:02;31.10;;;6.87;;
11921;SDS011;6021;51.182;3.160;2023-11-19T08:13:31;35.33;;;7.80;;
11921;SDS011;6021;51.182;3.160;2023-11-19T08:16:00;37.80;;;7.83;;
11921;SDS011;6021;51.182;3.160;2023-11-19T08:18:28;34.60;;;8.20;;
11921;SDS011;6021;51.182;3.160;2023-11-19T08:20:56;27.47;;;7.03;;
11921;SDS011;6021;51.182;3.160;2023-11-19T08:23:26;37.87;;;8.50;;
11921;SDS011;6021;51.182;3.160;2023-11-19T08:25:55;35.30;;;8.10;;
11921;SDS011;6021;51.182;3.160;2023-11-19T08:28:23;32.10;;;7.80;;
11921;SDS011;6021;51.182;3.160;2023-11-19T08:30:52;31.70;;;8.17;;
11921;SDS011;6021;51.182;3.160;2023-11-19T08:33:20;33.13;;;8.03;;
11921;SDS011;6021;51.182;3.160;2023-11-19T08:35:49;34.83;;;8.40;;
11921;SDS011;6021;51.182;3.160;2023-11-19T08:38:17;31.37;;;7.63;;
11921;SDS011;6021;51.182;3.160;2023-11-19T08:40:45;32.60;;;7.70;;
11921;SDS011;6021;51.182;3.160;2023-11-19T08:43:14;35.10;;;7.43;;
11921;SDS011;6021;51.182;3.160;2023-11-19T08:45:42;26.57;;;6.73;;
11921;SDS011;6021;51.182;3.160;2023-11-19T08:48:11;32.20;;;7.13;;
11921;SDS011;6021;51.182;3.160;2023-11-19T08:50:39;32.57;;;7.13;;
11921;SDS011;6021;51.182;3.160;2023-11-19T08:53:07;31.27;;;7.00;;
11921;SDS011;6021;51.182;3.160;2023-11-19T08:55:36;36.60;;;7.37;;
11921;SDS011;6021;51.182;3.160;2023-11-19T08:58:04;28.13;;;6.63;;
11921;SDS011;6021;51.182;3.160;2023-11-19T09:00:33;29.67;;;7.20;;
11921;SDS011;6021;51.182;3.160;2023-11-19T09:03:01;33.03;;;7.87;;
11921;SDS011;6021;51.182;3.160;2023-11-19T09:05:30;36.10;;;7.40;;
11921;SDS011;6021;51.182;3.160;2023-11-19T09:07:58;30.67;;;7.03;;
11921;SDS011;6021;51.182;3.160;2023-11-19T09:10:26;28.67;;;6.67;;
11921;SDS011;6021;51.182;3.160;2023-11-19T09:12:56;28.53;;;7.13;;
11921;SDS011;6021;51.182;3.160;2023-11-19T09:15:24;27.40;;;7.43;;
11921;SDS011;6021;51.182;3.160;2023-11-19T09:17:52;24.43;;;6.77;;
11921;SDS011;6021;51.182;3.160;2023-11-19T09:23:08;29.20;;;6.47;;
11921;SDS011;6021;51.182;3.160;2023-11-19T09:25:37;27.70;;;6.30;;
11921;SDS011;6021;51.182;3.160;2023-11-19T09:28:05;29.23;;;6.33;;
11921;SDS011;6021;51.182;3.160;2023-11-19T09:30:35;34.37;;;7.53;;
11921;SDS011;6021;51.182;3.160;2023-11-19T09:33:03;37.53;;;6.80;;
11921;SDS011;6021;51.182;3.160;2023-11-19T09:35:32;33.80;;;6.90;;
11921;SDS011;6021;51.182;3.160;2023-11-19T09:38:00;28.30;;;6.60;;
11921;SDS011;6021;51.182;3.160;2023-11-19T09:40:29;37.23;;;6.77;;
11921;SDS011;6021;51.182;3.160;2023-11-19T09:42:58;28.07;;;7.03;;
11921;SDS011;6021;51.182;3.160;2023-11-19T09:45:27;32.00;;;7.37;;
11921;SDS011;6021;51.182;3.160;2023-11-19T09:47:56;34.13;;;7.33;;
11921;SDS011;6021;51.182;3.160;2023-11-19T09:50:26;36.80;;;6.67;;
11921;SDS011;6021;51.182;3.160;2023-11-19T09:52:55;33.80;;;6.93;;
11921;SDS011;6021;51.182;3.160;2023-11-19T09:55:24;29.10;;;6.57;;
11921;SDS011;6021;51.182;3.160;2023-11-19T09:57:52;32.43;;;7.03;;
11921;SDS011;6021;51.182;3.160;2023-11-19T10:00:21;34.30;;;6.63;;
11921;SDS011;6021;51.182;3.160;2023-11-19T10:02:49;33.50;;;7.27;;
11921;SDS011;6021;51.182;3.160;2023-11-19T10:05:18;30.63;;;6.20;;
11921;SDS011;6021;51.182;3.160;2023-11-19T10:07:48;43.83;;;7.40;;
11921;SDS011;6021;51.182;3.160;2023-11-19T10:10:16;36.37;;;7.13;;
11921;SDS011;6021;51.182;3.160;2023-11-19T10:12:46;30.13;;;6.83;;
11921;SDS011;6021;51.182;3.160;2023-11-19T10:15:17;29.67;;;6.90;;
11921;SDS011;6021;51.182;3.160;2023-11-19T10:17:45;32.17;;;6.90;;
11921;SDS011;6021;51.182;3.160;2023-11-19T10:20:14;31.60;;;6.63;;
11921;SDS011;6021;51.182;3.160;2023-11-19T10:22:42;29.07;;;6.60;;
11921;SDS011;6021;51.182;3.160;2023-11-19T10:25:26;28.87;;;6.50;;
11921;SDS011;6021;51.182;3.160;2023-11-19T10:27:50;30.37;;;6.70;;
11921;SDS011;6021;51.182;3.160;2023-11-19T10:30:23;28.87;;;6.40;;
11921;SDS011;6021;51.182;3.160;2023-11-19T10:35:56;31.97;;;6.73;;
11921;SDS011;6021;51.182;3.160;2023-11-19T10:38:26;22.97;;;6.00;;
11921;SDS011;6021;51.182;3.160;2023-11-19T10:40:54;36.77;;;6.73;;
11921;SDS011;6021;51.182;3.160;2023-11-19T10:43:23;31.43;;;6.60;;
11921;SDS011;6021;51.182;3.160;2023-11-19T10:45:51;30.73;;;7.20;;
11921;SDS011;6021;51.182;3.160;2023-11-19T10:48:20;29.50;;;6.63;;
11921;SDS011;6021;51.182;3.160;2023-11-19T10:50:53;31.60;;;6.80;;
11921;SDS011;6021;51.182;3.160;2023-11-19T10:53:21;34.37;;;7.63;;
11921;SDS011;6021;51.182;3.160;2023-11-19T10:55:52;37.70;;;7.27;;
11921;SDS011;6021;51.182;3.160;2023-11-19T10:58:24;32.37;;;6.93;;
11921;SDS011;6021;51.182;3.160;2023-11-19T11:00:57;36.57;;;7.00;;
11921;SDS011;6021;51.182;3.160;2023-11-19T11:03:28;32.43;;;7.00;;
11921;SDS011;6021;51.182;3.160;2023-11-19T11:06:00;35.77;;;8.03;;
11921;SDS011;6021;51.182;3.160;2023-11-19T11:08:30;30.23;;;7.10;;
11921;SDS011;6021;51.182;3.160;2023-11-19T11:10:58;30.67;;;7.07;;
11921;SDS011;6021;51.182;3.160;2023-11-19T11:13:27;31.10;;;7.00;;
11921;SDS011;6021;51.182;3.160;2023-11-19T11:15:57;28.70;;;6.40;;
11921;SDS011;6021;51.182;3.160;2023-11-19T11:18:26;33.77;;;6.40;;
11921;SDS011;6021;51.182;3.160;2023-11-19T11:21:09;23.70;;;5.67;;
11921;SDS011;6021;51.182;3.160;2023-11-19T11:23:37;25.33;;;6.03;;
11921;SDS011;6021;51.182;3.160;2023-11-19T11:40:05;28.83;;;6.40;;
11921;SDS011;6021;51.182;3.160;2023-11-19T11:42:35;28.63;;;5.73;;
11921;SDS011;6021;51.182;3.160;2023-11-19T11:50:24;32.10;;;6.50;;
11921;SDS011;6021;51.182;3.160;2023-11-19T11:55:35;32.03;;;7.50;;
11921;SDS011;6021;51.182;3.160;2023-11-19T11:58:05;37.10;;;7.13;;
11921;SDS011;6021;51.182;3.160;2023-11-19T12:00:37;33.67;;;7.53;;
11921;SDS011;6021;51.182;3.160;2023-11-19T12:03:07;30.93;;;6.97;;
11921;SDS011;6021;51.182;3.160;2023-11-19T12:05:40;44.57;;;7.63;;
11921;SDS011;6021;51.182;3.160;2023-11-19T12:08:10;34.57;;;8.63;;
11921;SDS011;6021;51.182;3.160;2023-11-19T12:10:51;28.93;;;6.77;;
11921;SDS011;6021;51.182;3.160;2023-11-19T12:13:29;26.20;;;6.33;;
11921;SDS011;6021;51.182;3.160;2023-11-19T12:16:12;32.90;;;7.30;;
11921;SDS011;6021;51.182;3.160;2023-11-19T12:18:40;25.63;;;6.43;;
11921;SDS011;6021;51.182;3.160;2023-11-19T12:21:09;32.03;;;6.10;;
11921;SDS011;6021;51.182;3.160;2023-11-19T12:23:44;31.40;;;6.83;;
11921;SDS011;6021;51.182;3.160;2023-11-19T12:26:34;26.07;;;7.00;;
11921;SDS011;6021;51.182;3.160;2023-11-19T12:29:04;27.03;;;5.73;;
11921;SDS011;6021;51.182;3.160;2023-11-19T12:31:33;28.27;;;5.73;;
11921;SDS011;6021;51.182;3.160;2023-11-19T12:34:05;29.30;;;6.40;;
11921;SDS011;6021;51.182;3.160;2023-11-19T12:36:33;30.10;;;6.37;;
11921;SDS011;6021;51.182;3.160;2023-11-19T12:39:02;30.27;;;6.67;;
11921;SDS011;6021;51.182;3.160;2023-11-19T12:41:30;26.67;;;6.60;;
11921;SDS011;6021;51.182;3.160;2023-11-19T12:44:09;31.33;;;6.57;;
11921;SDS011;6021;51.182;3.160;2023-11-19T12:46:38;31.47;;;6.57;;
11921;SDS011;6021;51.182;3.160;2023-11-19T12:49:06;28.83;;;6.93;;
11921;SDS011;6021;51.182;3.160;2023-11-19T12:51:36;20.97;;;5.70;;
11921;SDS011;6021;51.182;3.160;2023-11-19T12:54:05;26.17;;;5.90;;
11921;SDS011;6021;51.182;3.160;2023-11-19T12:56:33;25.07;;;6.03;;
11921;SDS011;6021;51.182;3.160;2023-11-19T12:59:11;24.47;;;5.80;;
11921;SDS011;6021;51.182;3.160;2023-11-19T13:01:53;25.63;;;5.67;;
11921;SDS011;6021;51.182;3.160;2023-11-19T13:04:22;26.13;;;6.07;;
11921;SDS011;6021;51.182;3.160;2023-11-19T13:06:52;22.10;;;5.53;;
11921;SDS011;6021;51.182;3.160;2023-11-19T13:09:21;30.27;;;5.93;;
11921;SDS011;6021;51.182;3.160;2023-11-19T13:11:56;21.83;;;6.03;;
11921;SDS011;6021;51.182;3.160;2023-11-19T13:14:35;20.07;;;5.43;;
11921;SDS011;6021;51.182;3.160;2023-11-19T13:16:57;29.53;;;6.13;;
11921;SDS011;6021;51.182;3.160;2023-11-19T13:19:25;25.93;;;5.70;;
11921;SDS011;6021;51.182;3.160;2023-11-19T13:21:54;23.30;;;5.73;;
11921;SDS011;6021;51.182;3.160;2023-11-19T13:24:22;21.60;;;5.60;;
11921;SDS011;6021;51.182;3.160;2023-11-19T13:26:50;22.20;;;5.43;;
11921;SDS011;6021;51.182;3.160;2023-11-19T13:29:19;24.03;;;6.07;;
11921;SDS011;6021;51.182;3.160;2023-11-19T13:31:47;29.90;;;5.47;;
11921;SDS011;6021;51.182;3.160;2023-11-19T13:34:16;23.23;;;5.13;;
11921;SDS011;6021;51.182;3.160;2023-11-19T13:36:44;25.20;;;5.93;;
11921;SDS011;6021;51.182;3.160;2023-11-19T13:39:13;25.67;;;5.83;;
11921;SDS011;6021;51.182;3.160;2023-11-19T13:41:43;24.50;;;5.87;;
11921;SDS011;6021;51.182;3.160;2023-11-19T13:44:11;21.27;;;5.67;;
11921;SDS011;6021;51.182;3.160;2023-11-19T13:46:41;21.77;;;5.23;;
11921;SDS011;6021;51.182;3.160;2023-11-19T13:49:13;26.63;;;6.20;;
11921;SDS011;6021;51.182;3.160;2023-11-19T13:51:42;24.43;;;5.40;;
11921;SDS011;6021;51.182;3.160;2023-11-19T13:54:10;26.77;;;6.33;;
11921;SDS011;6021;51.182;3.160;2023-11-19T13:56:41;28.00;;;6.50;;
11921;SDS011;6021;51.182;3.160;2023-11-19T13:59:11;25.17;;;5.87;;
11921;SDS011;6021;51.182;3.160;2023-11-19T14:01:39;24.33;;;5.23;;
11921;SDS011;6021;51.182;3.160;2023-11-19T14:04:08;22.73;;;5.50;;
11921;SDS011;6021;51.182;3.160;2023-11-19T14:06:36;23.77;;;5.53;;
11921;SDS011;6021;51.182;3.160;2023-11-19T14:09:06;22.87;;;5.77;;
11921;SDS011;6021;51.182;3.160;2023-11-19T14:11:34;25.17;;;5.80;;
11921;SDS011;6021;51.182;3.160;2023-11-19T14:14:03;23.80;;;5.97;;
11921;SDS011;6021;51.182;3.160;2023-11-19T14:16:31;24.10;;;5.23;;
11921;SDS011;6021;51.182;3.160;2023-11-19T14:19:00;26.87;;;5.80;;
11921;SDS011;6021;51.182;3.160;2023-11-19T14:21:29;22.53;;;5.53;;
11921;SDS011;6021;51.182;3.160;2023-11-19T14:23:58;22.83;;;5.30;;
11921;SDS011;6021;51.182;3.160;2023-11-19T14:26:26;25.40;;;6.10;;
11921;SDS011;6021;51.182;3.160;2023-11-19T14:28:54;29.73;;;6.10;;
11921;SDS011;6021;51.182;3.160;2023-11-19T14:31:22;28.60;;;6.43;;
11921;SDS011;6021;51.182;3.160;2023-11-19T14:33:52;29.43;;;6.27;;
11921;SDS011;6021;51.182;3.160;2023-11-19T14:36:21;30.50;;;6.30;;
11921;SDS011;6021;51.182;3.160;2023-11-19T14:38:49;33.57;;;6.63;;
11921;SDS011;6021;51.182;3.160;2023-11-19T14:41:17;28.17;;;5.77;;
11921;SDS011;6021;51.182;3.160;2023-11-19T14:43:46;25.23;;;6.03;;
11921;SDS011;6021;51.182;3.160;2023-11-19T14:46:14;33.57;;;5.63;;
11921;SDS011;6021;51.182;3.160;2023-11-19T14:48:43;42.33;;;6.00;;
11921;SDS011;6021;51.182;3.160;2023-11-19T14:51:11;26.57;;;6.20;;
11921;SDS011;6021;51.182;3.160;2023-11-19T14:53:39;34.70;;;6.47;;
11921;SDS011;6021;51.182;3.160;2023-11-19T14:56:10;34.83;;;6.50;;
11921;SDS011;6021;51.182;3.160;2023-11-19T14:58:39;29.90;;;7.10;;
11921;SDS011;6021;51.182;3.160;2023-11-19T15:01:11;37.47;;;7.63;;
11921;SDS011;6021;51.182;3.160;2023-11-19T15:03:40;22.33;;;5.87;;
11921;SDS011;6021;51.182;3.160;2023-11-19T15:06:09;36.60;;;6.17;;
11921;SDS011;6021;51.182;3.160;2023-11-19T15:08:38;37.53;;;5.67;;
11921;SDS011;6021;51.182;3.160;2023-11-19T15:11:06;29.13;;;5.50;;
11921;SDS011;6021;51.182;3.160;2023-11-19T15:13:35;23.50;;;5.93;;
11921;SDS011;6021;51.182;3.160;2023-11-19T15:16:04;24.17;;;5.40;;
11921;SDS011;6021;51.182;3.160;2023-11-19T15:18:33;24.97;;;5.20;;
11921;SDS011;6021;51.182;3.160;2023-11-19T15:21:01;22.33;;;4.87;;
11921;SDS011;6021;51.182;3.160;2023-11-19T15:23:30;24.20;;;5.20;;
11921;SDS011;6021;51.182;3.160;2023-11-19T15:25:58;24.90;;;5.90;;
11921;SDS011;6021;51.182;3.160;2023-11-19T15:28:27;30.57;;;6.07;;